Time;durP1;ratioP1;P1;durP2;ratioP2;P2;SDS_P1;SDS_P2;PMS_P1;PMS_P2;Temp;Humidity;BMP_temperature;BMP_pressure;BME280_temperature;BME280_humidity;BME280_pressure;Samples;Min_cycle;Max_cycle;Signal;HPM_P1;HPM_P2
2021/07/21 00:00:15;;;;;;;12.80;6.70;;;18.10;76.80;;;;;;4990644;28;20426;-74
2021/07/21 00:02:41;;;;;;;12.17;7.07;;;18.10;76.70;;;;;;4990060;28;20862;-73
2021/07/21 00:05:12;;;;;;;13.77;7.40;;;18.10;76.70;;;;;;4989217;28;20545;-73
2021/07/21 00:07:38;;;;;;;17.17;7.70;;;18.10;76.40;;;;;;4987320;28;20236;-74
2021/07/21 00:10:07;;;;;;;17.53;8.27;;;18.10;76.40;;;;;;4987578;28;20832;-73
2021/07/21 00:15:18;;;;;;;17.97;8.40;;;18.20;76.70;;;;;;4982975;28;20494;-73
2021/07/21 00:17:45;;;;;;;16.37;8.43;;;18.20;76.40;;;;;;4984548;28;20501;-73
2021/07/21 00:20:12;;;;;;;13.90;6.83;;;18.20;76.20;;;;;;4987387;28;20434;-74
2021/07/21 00:22:43;;;;;;;14.93;8.40;;;18.30;76.10;;;;;;4982753;28;20428;-74
2021/07/21 00:25:13;;;;;;;14.97;7.43;;;18.30;76.20;;;;;;4985468;28;20441;-73
2021/07/21 00:27:39;;;;;;;15.20;8.30;;;18.30;76.40;;;;;;4984674;28;20423;-73
2021/07/21 00:30:07;;;;;;;12.80;7.30;;;18.30;76.50;;;;;;4987506;28;20427;-73
2021/07/21 00:32:33;;;;;;;13.53;7.00;;;18.20;76.80;;;;;;4982587;28;20414;-73
2021/07/21 00:34:59;;;;;;;15.33;8.10;;;18.20;77.00;;;;;;4989202;28;20418;-75
2021/07/21 00:37:25;;;;;;;19.03;8.17;;;18.20;77.30;;;;;;4984583;28;20419;-74
2021/07/21 00:39:50;;;;;;;13.93;7.10;;;18.10;77.10;;;;;;4990143;28;20246;-73
2021/07/21 00:42:16;;;;;;;18.57;8.10;;;18.10;77.30;;;;;;5004445;28;20190;-73
2021/07/21 00:44:42;;;;;;;12.03;6.60;;;18.10;77.10;;;;;;4989709;28;20224;-74
2021/07/21 00:47:08;;;;;;;14.70;8.00;;;18.00;77.30;;;;;;4995345;28;20262;-72
2021/07/21 00:49:34;;;;;;;16.03;7.90;;;18.00;77.30;;;;;;5007036;28;20178;-73
2021/07/21 00:52:03;;;;;;;16.17;8.67;;;17.90;77.30;;;;;;4999323;28;20751;-72
2021/07/21 00:54:30;;;;;;;14.83;7.33;;;17.90;77.30;;;;;;4982163;28;20271;-73
2021/07/21 00:56:57;;;;;;;14.07;6.80;;;17.90;77.30;;;;;;4979034;28;20482;-73
2021/07/21 00:59:23;;;;;;;21.00;8.30;;;17.80;77.60;;;;;;4988992;28;20775;-72
2021/07/21 01:01:49;;;;;;;13.87;7.27;;;17.70;77.80;;;;;;4994190;28;20418;-72
2021/07/21 01:04:15;;;;;;;17.80;7.70;;;17.70;78.10;;;;;;4989432;28;20537;-72
2021/07/21 01:06:41;;;;;;;19.07;8.23;;;17.70;78.30;;;;;;4987340;28;20754;-73
2021/07/21 01:09:07;;;;;;;18.40;8.43;;;17.60;78.30;;;;;;4994022;28;20193;-72
2021/07/21 01:12:15;;;;;;;17.43;7.70;;;17.60;78.30;;;;;;4993953;28;20270;-73
2021/07/21 01:15:10;;;;;;;15.07;7.57;;;17.50;78.40;;;;;;4992063;28;20437;-73
2021/07/21 01:18:02;;;;;;;15.83;7.50;;;17.50;78.60;;;;;;4991399;28;20990;-73
2021/07/21 01:20:34;;;;;;;14.30;7.60;;;17.40;79.00;;;;;;4993051;28;20520;-74
2021/07/21 01:23:40;;;;;;;15.60;7.87;;;17.40;79.00;;;;;;4983220;28;20429;-74
2021/07/21 01:26:19;;;;;;;16.23;7.63;;;17.40;79.00;;;;;;4975662;28;20485;-73
2021/07/21 01:28:47;;;;;;;17.43;7.60;;;17.40;79.30;;;;;;4992084;28;20414;-73
2021/07/21 01:31:20;;;;;;;11.70;6.97;;;17.30;79.60;;;;;;4991486;28;20433;-73
2021/07/21 01:33:47;;;;;;;14.90;6.60;;;17.30;79.70;;;;;;4988980;28;20476;-73
2021/07/21 01:36:25;;;;;;;12.80;7.10;;;17.20;80.00;;;;;;4982404;28;20453;-73
2021/07/21 01:38:54;;;;;;;14.63;8.10;;;17.20;80.20;;;;;;4986345;28;20545;-73
2021/07/21 01:41:21;;;;;;;17.43;7.63;;;17.10;80.50;;;;;;4990351;28;20438;-73
2021/07/21 01:43:51;;;;;;;16.53;7.40;;;17.10;80.60;;;;;;4983589;28;20461;-73
2021/07/21 01:46:22;;;;;;;14.83;8.37;;;17.10;80.60;;;;;;4988452;28;20472;-74
2021/07/21 01:48:49;;;;;;;18.67;8.67;;;17.00;80.80;;;;;;4993039;28;20424;-74
2021/07/21 01:51:16;;;;;;;13.20;7.27;;;17.00;80.90;;;;;;4989776;28;20468;-74
2021/07/21 01:53:45;;;;;;;16.80;7.83;;;17.00;80.90;;;;;;4985149;28;20440;-74
2021/07/21 01:56:11;;;;;;;15.17;8.57;;;17.00;81.10;;;;;;4987801;28;20533;-74
2021/07/21 01:58:38;;;;;;;17.10;7.73;;;17.00;80.90;;;;;;4982332;28;20445;-74
2021/07/21 02:01:08;;;;;;;20.67;7.60;;;17.00;81.20;;;;;;4986710;28;20520;-72
2021/07/21 02:03:35;;;;;;;15.23;8.40;;;16.90;81.50;;;;;;4989739;28;20464;-74
2021/07/21 02:06:03;;;;;;;16.10;8.00;;;16.90;81.50;;;;;;4984058;28;20582;-73
2021/07/21 02:08:30;;;;;;;26.93;9.77;;;16.80;82.10;;;;;;4985076;28;20428;-74
2021/07/21 02:10:57;;;;;;;16.00;7.40;;;16.80;82.40;;;;;;4989021;28;20565;-73
2021/07/21 02:13:26;;;;;;;19.43;8.07;;;16.80;82.70;;;;;;4991186;28;20468;-73
2021/07/21 02:15:52;;;;;;;19.30;8.00;;;16.80;82.40;;;;;;4992685;28;20962;-73
2021/07/21 02:18:19;;;;;;;16.73;7.90;;;16.80;82.70;;;;;;4985214;28;20430;-75
2021/07/21 02:20:47;;;;;;;17.43;8.93;;;16.70;82.70;;;;;;4990022;28;20441;-74
2021/07/21 02:23:18;;;;;;;18.57;9.00;;;16.70;83.10;;;;;;4990357;28;20556;-73
2021/07/21 02:25:45;;;;;;;16.13;8.53;;;16.70;83.10;;;;;;4987000;28;20481;-72
2021/07/21 02:28:12;;;;;;;16.70;8.20;;;16.70;83.10;;;;;;4989710;28;20431;-72
2021/07/21 02:30:38;;;;;;;15.50;8.10;;;16.60;83.30;;;;;;4988199;28;20839;-74
2021/07/21 02:33:10;;;;;;;15.77;8.80;;;16.60;83.60;;;;;;4990715;28;20429;-73
2021/07/21 02:35:36;;;;;;;13.73;7.37;;;16.60;83.70;;;;;;4992288;28;20242;-73
2021/07/21 02:38:05;;;;;;;15.97;8.70;;;16.60;83.80;;;;;;4989402;28;20422;-72
2021/07/21 02:40:31;;;;;;;13.47;8.10;;;16.50;83.80;;;;;;4992406;28;20540;-74
2021/07/21 02:42:57;;;;;;;19.47;9.47;;;16.50;83.80;;;;;;4987670;28;20433;-75
2021/07/21 02:45:24;;;;;;;19.77;8.30;;;16.50;84.10;;;;;;4989165;28;20485;-73
2021/07/21 02:47:50;;;;;;;17.70;9.67;;;16.50;84.30;;;;;;4986314;28;20624;-74
2021/07/21 02:50:17;;;;;;;15.97;8.50;;;16.50;84.30;;;;;;4987528;28;20522;-73
2021/07/21 02:52:53;;;;;;;19.97;8.87;;;16.50;84.30;;;;;;4983757;28;20269;-74
2021/07/21 02:55:25;;;;;;;15.30;9.03;;;16.40;84.40;;;;;;4984149;28;20545;-74
2021/07/21 02:57:58;;;;;;;18.20;9.80;;;16.40;84.40;;;;;;4982359;28;20563;-73
2021/07/21 03:00:28;;;;;;;16.00;7.77;;;16.40;84.10;;;;;;4991381;28;20445;-72
2021/07/21 03:02:55;;;;;;;18.10;8.93;;;16.40;84.30;;;;;;4987313;28;20446;-72
2021/07/21 03:05:29;;;;;;;17.20;8.77;;;16.40;84.60;;;;;;4983089;28;20900;-72
2021/07/21 03:07:57;;;;;;;20.53;8.93;;;16.30;85.00;;;;;;4984897;28;20434;-73
2021/07/21 03:10:23;;;;;;;19.60;8.60;;;16.30;85.30;;;;;;4989175;28;20791;-73
2021/07/21 03:13:03;;;;;;;17.00;8.07;;;16.20;85.50;;;;;;4988670;28;20436;-73
2021/07/21 03:15:33;;;;;;;18.50;9.03;;;16.10;85.70;;;;;;4982109;28;20441;-71
2021/07/21 03:18:01;;;;;;;18.60;8.90;;;16.10;85.90;;;;;;4991417;28;20939;-73
2021/07/21 03:20:27;;;;;;;18.53;9.53;;;16.10;86.00;;;;;;4991712;28;20443;-71
2021/07/21 03:22:56;;;;;;;15.33;7.50;;;16.00;86.20;;;;;;4984101;28;20426;-75
2021/07/21 03:25:23;;;;;;;16.10;8.70;;;16.00;86.20;;;;;;4990091;28;20477;-73
2021/07/21 03:27:52;;;;;;;16.03;7.80;;;16.00;86.50;;;;;;4994259;28;20431;-72
2021/07/21 03:30:18;;;;;;;18.37;7.77;;;16.10;86.30;;;;;;4997762;28;20899;-72
2021/07/21 03:32:45;;;;;;;16.30;9.30;;;16.00;86.30;;;;;;4984117;28;20457;-73
2021/07/21 03:35:12;;;;;;;16.13;8.57;;;16.00;86.60;;;;;;4985427;28;20439;-72
2021/07/21 03:37:45;;;;;;;15.60;8.60;;;16.00;86.60;;;;;;4984452;28;20414;-73
2021/07/21 03:40:12;;;;;;;16.67;8.77;;;16.00;86.60;;;;;;4983275;28;20422;-73
2021/07/21 03:42:38;;;;;;;17.10;8.87;;;16.00;86.60;;;;;;4987003;28;20428;-72
2021/07/21 03:45:08;;;;;;;17.47;8.43;;;16.00;86.80;;;;;;4983525;28;20931;-74
2021/07/21 03:47:35;;;;;;;16.30;9.47;;;16.00;86.80;;;;;;4985594;28;20967;-73
2021/07/21 03:50:03;;;;;;;16.60;8.23;;;16.00;86.90;;;;;;4986671;28;21015;-72
2021/07/21 03:52:29;;;;;;;15.70;8.80;;;16.00;87.00;;;;;;4981489;28;20494;-73
2021/07/21 03:54:56;;;;;;;18.33;8.87;;;16.00;87.00;;;;;;4989409;28;20799;-73
2021/07/21 03:57:25;;;;;;;16.47;9.17;;;16.00;87.00;;;;;;4982690;28;20456;-73
2021/07/21 03:59:51;;;;;;;18.17;9.20;;;16.00;86.90;;;;;;4983828;28;20553;-73
2021/07/21 04:02:18;;;;;;;24.73;9.63;;;16.00;87.30;;;;;;4988398;28;20472;-73
2021/07/21 04:04:47;;;;;;;15.87;8.40;;;15.90;87.30;;;;;;4982357;28;20427;-72
2021/07/21 04:07:15;;;;;;;17.57;9.30;;;16.00;87.30;;;;;;4986402;28;20473;-73
2021/07/21 04:09:42;;;;;;;18.27;8.47;;;16.00;87.30;;;;;;4985815;28;20442;-74
2021/07/21 04:12:09;;;;;;;17.90;8.70;;;16.00;87.30;;;;;;4990378;28;20430;-72
2021/07/21 04:14:36;;;;;;;17.90;9.40;;;15.90;87.60;;;;;;4994589;28;20417;-74
2021/07/21 04:17:04;;;;;;;19.10;8.77;;;15.80;87.60;;;;;;4998224;28;20637;-73
2021/07/21 04:19:30;;;;;;;16.80;9.13;;;15.80;87.80;;;;;;5000996;28;20425;-74
2021/07/21 04:21:56;;;;;;;15.47;9.03;;;15.80;88.00;;;;;;4992876;28;20461;-72
2021/07/21 04:24:23;;;;;;;21.40;9.00;;;15.80;88.00;;;;;;4984946;28;20457;-74
2021/07/21 04:26:50;;;;;;;24.37;9.30;;;15.80;88.10;;;;;;4991238;28;20589;-74
2021/07/21 04:29:22;;;;;;;18.00;8.53;;;15.80;88.30;;;;;;5004046;28;20452;-73
2021/07/21 04:31:49;;;;;;;19.13;10.53;;;15.80;88.10;;;;;;5005305;28;20424;-73
2021/07/21 04:34:17;;;;;;;17.57;8.87;;;15.80;88.10;;;;;;4995755;28;20510;-73
2021/07/21 04:36:43;;;;;;;16.03;8.90;;;15.80;88.10;;;;;;4982810;28;20457;-73
2021/07/21 04:39:13;;;;;;;16.90;9.03;;;15.80;88.30;;;;;;4983651;28;20836;-74
2021/07/21 04:41:39;;;;;;;21.47;9.73;;;15.90;88.30;;;;;;4990574;28;20440;-74
2021/07/21 04:44:05;;;;;;;19.40;9.50;;;15.90;88.10;;;;;;4982683;28;20525;-73
2021/07/21 04:46:33;;;;;;;19.17;9.53;;;16.00;88.10;;;;;;4989451;28;20475;-73
2021/07/21 04:48:59;;;;;;;14.80;8.23;;;16.00;88.00;;;;;;4986872;28;20837;-74
2021/07/21 04:51:25;;;;;;;18.90;10.07;;;16.10;87.80;;;;;;4988436;28;20422;-74
2021/07/21 04:53:55;;;;;;;29.07;10.50;;;16.10;87.60;;;;;;4989457;28;20421;-74
2021/07/21 04:56:22;;;;;;;22.47;10.13;;;16.20;87.60;;;;;;4985419;28;20450;-74
2021/07/21 04:58:48;;;;;;;15.20;9.27;;;16.30;87.40;;;;;;4988977;28;20422;-74
2021/07/21 05:01:14;;;;;;;20.90;9.70;;;16.30;87.30;;;;;;4985586;28;20465;-75
2021/07/21 05:03:40;;;;;;;16.00;9.13;;;16.30;87.40;;;;;;4987016;28;20943;-73
2021/07/21 05:06:05;;;;;;;17.77;8.83;;;16.30;87.40;;;;;;4983951;28;20540;-72
2021/07/21 05:08:31;;;;;;;17.13;8.10;;;16.30;87.40;;;;;;4985923;28;20185;-74
2021/07/21 05:10:57;;;;;;;21.97;10.20;;;16.40;87.40;;;;;;4982163;28;20214;-73
2021/07/21 05:13:22;;;;;;;21.97;9.80;;;16.50;86.90;;;;;;4990095;28;20221;-76
2021/07/21 05:15:48;;;;;;;21.57;10.00;;;16.60;86.30;;;;;;4981528;28;20203;-74
2021/07/21 05:18:15;;;;;;;20.33;9.70;;;16.70;85.30;;;;;;4981918;28;20194;-74
2021/07/21 05:20:41;;;;;;;20.40;9.87;;;16.80;84.00;;;;;;4988765;28;20837;-74
2021/07/21 05:23:07;;;;;;;22.00;9.57;;;16.90;83.70;;;;;;4979850;28;20808;-73
2021/07/21 05:25:35;;;;;;;18.57;10.20;;;17.00;83.00;;;;;;4989002;28;20472;-75
2021/07/21 05:28:12;;;;;;;25.73;10.67;;;17.00;82.70;;;;;;4978417;28;20781;-74
2021/07/21 05:30:37;;;;;;;22.40;10.80;;;17.10;82.50;;;;;;4986472;28;20448;-72
2021/07/21 05:33:04;;;;;;;21.00;9.83;;;17.20;82.10;;;;;;4990093;28;20444;-74
2021/07/21 05:35:29;;;;;;;20.37;10.27;;;17.20;81.90;;;;;;4987639;28;20211;-72
2021/07/21 05:37:56;;;;;;;22.87;10.50;;;17.20;81.80;;;;;;4986445;28;20526;-73
2021/07/21 05:40:23;;;;;;;18.60;9.53;;;17.20;81.80;;;;;;4990088;28;20220;-71
2021/07/21 05:42:48;;;;;;;21.70;10.90;;;17.20;82.40;;;;;;4989437;28;20928;-72
2021/07/21 05:45:14;;;;;;;21.93;10.10;;;17.20;82.10;;;;;;4991507;28;20464;-72
2021/07/21 05:47:40;;;;;;;22.03;10.07;;;17.20;82.10;;;;;;4997362;28;20479;-75
2021/07/21 05:50:07;;;;;;;27.23;9.67;;;17.20;82.10;;;;;;4994378;28;20504;-75
2021/07/21 05:52:34;;;;;;;16.37;9.27;;;17.20;82.10;;;;;;4992931;28;20982;-72
2021/07/21 05:55:00;;;;;;;25.43;11.00;;;17.20;82.10;;;;;;4991162;28;21213;-71
2021/07/21 05:57:25;;;;;;;16.73;9.30;;;17.30;82.10;;;;;;4993820;28;20456;-71
2021/07/21 05:59:53;;;;;;;16.60;9.43;;;17.20;81.80;;;;;;4991424;28;20228;-73
2021/07/21 06:02:19;;;;;;;21.30;10.20;;;17.20;81.90;;;;;;4993639;28;20920;-73
2021/07/21 06:04:45;;;;;;;18.13;9.37;;;17.30;82.10;;;;;;4993096;28;20435;-72
2021/07/21 06:07:11;;;;;;;22.50;10.83;;;17.40;81.80;;;;;;4992139;28;20492;-74
2021/07/21 06:09:37;;;;;;;22.07;10.30;;;17.40;81.70;;;;;;4992640;28;20187;-72
2021/07/21 06:12:03;;;;;;;18.37;10.00;;;17.50;81.40;;;;;;4990720;28;20436;-72
2021/07/21 06:14:31;;;;;;;24.03;11.03;;;17.60;80.90;;;;;;4985189;28;20652;-71
2021/07/21 06:16:57;;;;;;;20.83;10.43;;;17.60;80.60;;;;;;4985895;28;20447;-72
2021/07/21 06:19:23;;;;;;;26.23;10.70;;;17.70;80.30;;;;;;4985302;28;20464;-73
2021/07/21 06:21:49;;;;;;;19.47;10.37;;;17.60;80.50;;;;;;4988769;28;20452;-71
2021/07/21 06:24:15;;;;;;;19.40;10.30;;;17.70;80.60;;;;;;4985322;28;20282;-72
2021/07/21 06:26:41;;;;;;;20.40;10.27;;;17.70;80.80;;;;;;4987369;28;20301;-72
2021/07/21 06:29:07;;;;;;;20.13;9.97;;;17.80;80.60;;;;;;4981277;28;20484;-71
2021/07/21 06:31:33;;;;;;;21.70;11.07;;;17.80;80.60;;;;;;4986100;28;20418;-73
2021/07/21 06:33:59;;;;;;;20.83;10.77;;;17.90;80.20;;;;;;4988153;28;20462;-71
2021/07/21 06:36:24;;;;;;;20.60;11.10;;;18.00;79.90;;;;;;4984287;28;20203;-74
2021/07/21 06:38:50;;;;;;;24.00;11.43;;;18.00;79.70;;;;;;4988220;28;20191;-74
2021/07/21 06:41:16;;;;;;;18.07;9.30;;;18.10;79.50;;;;;;4990916;28;20240;-72
2021/07/21 06:43:43;;;;;;;21.00;11.20;;;18.10;79.30;;;;;;4984380;28;20183;-71
2021/07/21 06:46:08;;;;;;;19.60;10.40;;;18.20;79.60;;;;;;4987379;28;20243;-72
2021/07/21 06:48:34;;;;;;;20.73;10.27;;;18.30;79.00;;;;;;4988287;28;20422;-72
2021/07/21 06:51:00;;;;;;;19.13;10.57;;;18.30;78.70;;;;;;4988333;28;20317;-72
2021/07/21 06:53:30;;;;;;;19.37;10.13;;;18.40;78.70;;;;;;4991733;28;20891;-74
2021/07/21 06:55:56;;;;;;;20.47;10.87;;;18.30;77.80;;;;;;4992478;28;20214;-72
2021/07/21 06:58:22;;;;;;;19.63;9.83;;;18.30;78.00;;;;;;4981995;28;20461;-72
2021/07/21 07:00:48;;;;;;;21.40;10.07;;;18.30;78.30;;;;;;4995094;28;20431;-72
2021/07/21 07:03:14;;;;;;;22.73;11.17;;;18.30;78.40;;;;;;4990918;28;20929;-73
2021/07/21 07:05:39;;;;;;;18.10;9.97;;;18.40;77.70;;;;;;4985208;28;20299;-72
2021/07/21 07:08:05;;;;;;;17.80;10.43;;;18.50;77.10;;;;;;4989192;28;20641;-74
2021/07/21 07:10:31;;;;;;;21.33;10.13;;;18.60;77.40;;;;;;4991603;28;20639;-73
2021/07/21 07:12:57;;;;;;;19.97;11.30;;;18.70;77.30;;;;;;4989084;28;20184;-72
2021/07/21 07:15:23;;;;;;;18.30;9.50;;;18.80;76.70;;;;;;4983830;28;20269;-74
2021/07/21 07:17:49;;;;;;;28.60;12.23;;;18.80;76.40;;;;;;4989240;28;20474;-73
2021/07/21 07:20:15;;;;;;;20.53;9.63;;;18.80;75.80;;;;;;4991848;28;20424;-72
2021/07/21 07:22:41;;;;;;;17.70;9.77;;;18.80;75.70;;;;;;4987421;28;20198;-73
2021/07/21 07:25:07;;;;;;;18.07;10.70;;;18.90;75.50;;;;;;4989769;28;21252;-73
2021/07/21 07:27:33;;;;;;;19.57;10.23;;;19.00;75.20;;;;;;4991004;28;20221;-72
2021/07/21 07:29:59;;;;;;;19.20;10.20;;;19.00;74.60;;;;;;4987517;28;20416;-73
2021/07/21 07:32:25;;;;;;;20.30;10.23;;;18.90;74.90;;;;;;4980580;28;20268;-73
2021/07/21 07:34:51;;;;;;;18.97;10.67;;;19.00;75.20;;;;;;4984472;28;20199;-73
2021/07/21 07:37:16;;;;;;;22.13;11.43;;;19.10;74.80;;;;;;4980720;28;20204;-72
2021/07/21 07:39:42;;;;;;;20.67;11.07;;;19.20;75.10;;;;;;4988569;28;20464;-73
2021/07/21 07:42:08;;;;;;;20.77;10.40;;;19.20;74.30;;;;;;4986028;28;20187;-74
2021/07/21 07:44:34;;;;;;;19.83;10.83;;;19.30;74.20;;;;;;4990209;28;20249;-73
2021/07/21 07:46:59;;;;;;;20.33;10.93;;;19.40;73.60;;;;;;4984325;28;20238;-72
2021/07/21 07:49:25;;;;;;;21.00;10.57;;;19.40;73.60;;;;;;4989039;28;20293;-72
2021/07/21 07:51:51;;;;;;;21.60;10.67;;;19.50;73.50;;;;;;4987641;28;20276;-72
2021/07/21 07:54:18;;;;;;;19.43;10.77;;;19.60;73.30;;;;;;4982629;28;20198;-72
2021/07/21 07:56:45;;;;;;;18.70;10.60;;;19.60;72.90;;;;;;4985774;28;20499;-72
2021/07/21 07:59:11;;;;;;;19.33;10.70;;;19.70;73.60;;;;;;4987919;28;20426;-73
2021/07/21 08:01:37;;;;;;;16.87;10.70;;;19.70;73.70;;;;;;4991699;28;20433;-74
2021/07/21 08:04:02;;;;;;;18.23;10.00;;;19.80;73.20;;;;;;4989008;28;20187;-72
2021/07/21 08:06:28;;;;;;;22.53;11.90;;;19.90;72.60;;;;;;4993048;28;20306;-74
2021/07/21 08:08:54;;;;;;;22.90;10.93;;;20.00;72.10;;;;;;4986890;28;20179;-72
2021/07/21 08:11:20;;;;;;;18.23;10.23;;;20.00;72.30;;;;;;4982635;28;20187;-74
2021/07/21 08:13:45;;;;;;;22.60;12.20;;;20.10;72.10;;;;;;4992812;28;20203;-72
2021/07/21 08:16:12;;;;;;;18.87;11.03;;;20.20;71.80;;;;;;4991476;28;20210;-72
2021/07/21 08:18:38;;;;;;;18.63;10.57;;;20.20;71.70;;;;;;4985857;28;20192;-73
2021/07/21 08:21:04;;;;;;;19.70;10.27;;;20.30;71.30;;;;;;4991051;28;20812;-72
2021/07/21 08:23:31;;;;;;;20.43;10.33;;;20.30;71.60;;;;;;4983825;28;21237;-73
2021/07/21 08:25:56;;;;;;;21.90;10.57;;;20.40;71.30;;;;;;4984401;28;20466;-72
2021/07/21 08:28:22;;;;;;;22.83;11.50;;;20.50;71.30;;;;;;4990079;28;20434;-73
2021/07/21 08:30:51;;;;;;;19.60;10.50;;;20.50;70.80;;;;;;4983800;28;20180;-74
2021/07/21 08:33:17;;;;;;;22.53;11.77;;;20.60;70.80;;;;;;4986859;28;20214;-72
2021/07/21 08:35:44;;;;;;;23.33;10.07;;;20.60;71.00;;;;;;4985733;28;20473;-73
2021/07/21 08:38:11;;;;;;;15.90;9.30;;;20.70;70.70;;;;;;4988205;28;20270;-73
2021/07/21 08:40:40;;;;;;;18.70;10.40;;;20.70;70.40;;;;;;4991447;28;20425;-73
2021/07/21 08:43:08;;;;;;;18.30;10.53;;;20.70;70.20;;;;;;4991310;28;20429;-73
2021/07/21 08:45:34;;;;;;;21.67;9.70;;;20.70;70.40;;;;;;4990830;28;20865;-73
2021/07/21 08:48:01;;;;;;;21.43;9.87;;;20.80;70.10;;;;;;4991208;28;20954;-73
2021/07/21 08:50:27;;;;;;;17.67;9.80;;;20.90;69.40;;;;;;4990383;28;20454;-72
2021/07/21 08:52:53;;;;;;;18.23;9.70;;;21.00;68.80;;;;;;4990514;28;20442;-72
2021/07/21 08:55:22;;;;;;;23.60;10.90;;;21.10;69.10;;;;;;4990425;28;20226;-73
2021/07/21 08:57:48;;;;;;;16.30;10.00;;;21.30;68.30;;;;;;4990869;28;20457;-72
2021/07/21 09:00:15;;;;;;;18.00;10.07;;;21.30;69.50;;;;;;4991321;28;20426;-72
2021/07/21 09:02:44;;;;;;;24.03;11.60;;;21.30;69.80;;;;;;4994346;28;20416;-72
2021/07/21 09:05:12;;;;;;;27.20;9.60;;;21.40;69.20;;;;;;4982582;28;20515;-73
2021/07/21 09:07:39;;;;;;;18.00;9.50;;;21.50;69.10;;;;;;4990473;28;20424;-73
2021/07/21 09:10:14;;;;;;;19.63;10.00;;;21.60;68.50;;;;;;4990261;28;20747;-72
2021/07/21 09:12:42;;;;;;;20.27;10.77;;;21.60;68.20;;;;;;4991365;28;20433;-73
2021/07/21 09:15:13;;;;;;;22.70;10.83;;;21.60;68.00;;;;;;4990889;28;20427;-73
2021/07/21 09:17:58;;;;;;;19.57;10.83;;;21.60;68.00;;;;;;4988384;28;20917;-74
2021/07/21 09:20:24;;;;;;;18.60;9.77;;;21.70;68.00;;;;;;4990979;28;20419;-72
2021/07/21 09:22:54;;;;;;;17.57;10.70;;;21.70;68.50;;;;;;4994335;28;20415;-74
2021/07/21 09:25:25;;;;;;;21.20;10.30;;;21.80;68.00;;;;;;4993184;28;20444;-73
2021/07/21 09:27:53;;;;;;;20.17;9.07;;;21.90;67.70;;;;;;4982270;28;20963;-72
2021/07/21 09:30:26;;;;;;;14.43;9.43;;;22.00;66.10;;;;;;4993129;28;20474;-73
2021/07/21 09:32:57;;;;;;;19.23;9.80;;;22.10;66.00;;;;;;4992975;28;20425;-73
2021/07/21 09:35:25;;;;;;;19.97;10.37;;;22.10;66.30;;;;;;4985525;28;20454;-71
2021/07/21 09:37:51;;;;;;;21.27;10.00;;;22.20;65.80;;;;;;4986065;28;20425;-73
2021/07/21 09:40:17;;;;;;;19.43;11.10;;;22.30;64.50;;;;;;4993182;28;20429;-72
2021/07/21 09:42:43;;;;;;;18.40;10.77;;;22.30;65.60;;;;;;4998515;28;20444;-71
2021/07/21 09:45:14;;;;;;;17.83;9.93;;;22.30;65.10;;;;;;4983472;28;20420;-72
2021/07/21 09:47:51;;;;;;;18.10;9.77;;;22.50;63.70;;;;;;4989686;28;20487;-72
2021/07/21 09:50:38;;;;;;;19.10;9.73;;;22.50;63.10;;;;;;4991647;28;20425;-72
2021/07/21 09:53:12;;;;;;;19.17;9.13;;;22.40;61.70;;;;;;4985667;28;20415;-72
2021/07/21 09:55:39;;;;;;;19.60;10.20;;;22.50;63.50;;;;;;4987015;28;20798;-71
2021/07/21 09:58:14;;;;;;;19.10;10.70;;;22.50;64.10;;;;;;4983148;28;20534;-72
2021/07/21 10:00:47;;;;;;;27.13;10.47;;;22.50;64.20;;;;;;4986598;28;20444;-73
2021/07/21 10:03:24;;;;;;;19.67;9.90;;;22.70;63.20;;;;;;4989104;28;20465;-72
2021/07/21 10:05:57;;;;;;;16.83;10.17;;;22.90;62.90;;;;;;4986101;28;20529;-73
2021/07/21 10:08:52;;;;;;;19.43;9.90;;;23.00;61.30;;;;;;4988231;28;20436;-72
2021/07/21 10:11:27;;;;;;;18.17;9.30;;;23.20;60.90;;;;;;4984922;28;20523;-73
2021/07/21 10:14:00;;;;;;;16.00;9.60;;;23.30;61.00;;;;;;4993038;28;20921;-73
2021/07/21 10:16:40;;;;;;;18.57;10.17;;;23.70;59.90;;;;;;4992345;28;20549;-73
2021/07/21 10:19:10;;;;;;;15.47;9.97;;;24.10;58.40;;;;;;4986287;28;20426;-71
2021/07/21 10:21:38;;;;;;;18.40;9.90;;;24.10;58.40;;;;;;4988469;28;20467;-73
2021/07/21 10:24:04;;;;;;;26.07;10.27;;;24.20;58.10;;;;;;4983531;28;20426;-75
2021/07/21 10:26:30;;;;;;;15.77;9.90;;;24.10;58.50;;;;;;4996602;28;20476;-72
2021/07/21 10:28:58;;;;;;;18.53;9.63;;;24.20;58.50;;;;;;4992223;28;20512;-71
2021/07/21 10:31:26;;;;;;;16.10;9.80;;;24.50;57.20;;;;;;4985039;28;20554;-73
2021/07/21 10:33:53;;;;;;;17.50;10.20;;;24.60;56.50;;;;;;4987726;28;20528;-74
2021/07/21 10:36:20;;;;;;;19.30;9.73;;;24.60;57.00;;;;;;4982950;28;20452;-71
2021/07/21 10:38:46;;;;;;;18.97;9.57;;;24.80;55.80;;;;;;4989029;28;20451;-73
2021/07/21 10:41:14;;;;;;;13.93;9.00;;;25.20;54.90;;;;;;4990324;28;20486;-72
2021/07/21 10:43:53;;;;;;;14.93;9.57;;;25.40;55.30;;;;;;4983651;28;20440;-72
2021/07/21 10:46:31;;;;;;;19.17;9.93;;;25.60;54.00;;;;;;4989333;28;20503;-73
2021/07/21 10:49:14;;;;;;;15.57;10.03;;;25.80;53.40;;;;;;4980785;28;20419;-72
2021/07/21 11:00:38;;;;;;;15.23;8.60;;;25.70;52.90;;;;;;4979512;28;20411;-73
2021/07/21 11:03:28;;;;;;;19.40;11.20;;;25.80;53.00;;;;;;4989543;28;20418;-72
2021/07/21 11:05:58;;;;;;;16.43;10.43;;;26.10;52.40;;;;;;4985581;28;20643;-73
2021/07/21 11:08:25;;;;;;;20.87;10.03;;;25.90;52.10;;;;;;4987683;28;21064;-72
2021/07/21 11:10:53;;;;;;;15.63;9.73;;;26.00;51.70;;;;;;4987293;28;20428;-72
2021/07/21 11:13:28;;;;;;;19.17;10.03;;;25.90;51.40;;;;;;4985728;28;20417;-72
2021/07/21 11:15:55;;;;;;;15.40;8.93;;;25.90;51.80;;;;;;4984269;28;20466;-71
2021/07/21 11:18:24;;;;;;;18.53;10.97;;;26.00;52.90;;;;;;4991642;28;21041;-73
2021/07/21 11:21:06;;;;;;;16.33;10.00;;;26.00;51.80;;;;;;4987485;28;20435;-72
2021/07/21 11:23:39;;;;;;;13.57;9.47;;;26.20;51.80;;;;;;4976591;28;20416;-72
2021/07/21 11:26:43;;;;;;;16.33;10.03;;;26.50;51.00;;;;;;4977581;28;20479;-72
2021/07/21 11:29:24;;;;;;;18.33;10.67;;;26.80;49.90;;;;;;4986874;28;20936;-71
2021/07/21 11:31:50;;;;;;;19.30;10.27;;;27.00;49.40;;;;;;4985314;28;20407;-72
2021/07/21 11:34:32;;;;;;;14.60;9.80;;;27.10;49.30;;;;;;4985732;28;20544;-72
2021/07/21 11:36:59;;;;;;;15.20;9.30;;;27.10;49.80;;;;;;4991127;28;20251;-71
2021/07/21 11:39:44;;;;;;;17.80;9.57;;;27.40;49.40;;;;;;4988294;28;20456;-71
2021/07/21 11:45:06;;;;;;;16.30;10.73;;;26.70;49.50;;;;;;4983202;28;20434;-71
2021/07/21 11:47:36;;;;;;;16.97;9.43;;;26.30;49.90;;;;;;4982672;28;20534;-72
2021/07/21 11:50:11;;;;;;;16.57;10.40;;;26.30;50.60;;;;;;4992971;28;20436;-71
2021/07/21 11:52:37;;;;;;;21.60;10.10;;;26.60;50.90;;;;;;4984111;28;20425;-71
2021/07/21 11:55:04;;;;;;;16.13;10.07;;;26.90;49.80;;;;;;4991974;28;20480;-73
2021/07/21 11:57:29;;;;;;;19.40;11.17;;;27.30;48.70;;;;;;4976843;28;20453;-72
2021/07/21 11:59:57;;;;;;;19.97;10.60;;;27.00;49.30;;;;;;4986808;28;20454;-71
2021/07/21 12:02:26;;;;;;;18.10;10.10;;;27.10;48.90;;;;;;4989122;28;20648;-71
2021/07/21 12:04:57;;;;;;;17.47;10.83;;;27.30;48.70;;;;;;4981343;28;20929;-72
2021/07/21 12:07:30;;;;;;;20.70;11.30;;;27.10;48.70;;;;;;4988614;28;20468;-72
2021/07/21 12:09:56;;;;;;;20.30;11.30;;;27.20;48.60;;;;;;4985405;28;21302;-72
2021/07/21 12:12:25;;;;;;;19.20;10.80;;;27.40;48.30;;;;;;4987685;28;20515;-72
2021/07/21 12:14:53;;;;;;;17.60;10.10;;;27.30;48.30;;;;;;4990638;28;20201;-72
2021/07/21 12:17:20;;;;;;;15.40;9.80;;;27.40;48.60;;;;;;4988832;28;20428;-72
2021/07/21 12:19:52;;;;;;;19.50;10.53;;;27.60;47.90;;;;;;4990517;28;20833;-72
2021/07/21 12:22:18;;;;;;;17.07;10.77;;;27.60;48.30;;;;;;4991180;28;20902;-72
2021/07/21 12:24:47;;;;;;;18.70;10.73;;;27.90;47.70;;;;;;4990955;28;20429;-72
2021/07/21 12:27:17;;;;;;;16.43;9.80;;;28.00;47.10;;;;;;4985378;28;20500;-72
2021/07/21 12:29:43;;;;;;;17.80;10.90;;;27.90;48.70;;;;;;4993422;28;20449;-73
2021/07/21 12:32:14;;;;;;;15.93;10.20;;;27.70;48.70;;;;;;4994658;28;20420;-71
2021/07/21 12:34:48;;;;;;;19.97;10.17;;;27.30;49.70;;;;;;4991973;28;20658;-71
2021/07/21 12:37:18;;;;;;;23.80;11.00;;;27.10;50.70;;;;;;4990917;28;20473;-72
2021/07/21 12:39:46;;;;;;;17.07;10.07;;;27.30;49.90;;;;;;4991039;28;20432;-71
2021/07/21 12:42:14;;;;;;;16.33;10.00;;;27.30;49.70;;;;;;4989238;28;20825;-73
2021/07/21 12:44:45;;;;;;;18.10;11.00;;;27.50;49.50;;;;;;4990393;28;20437;-72
2021/07/21 12:47:13;;;;;;;17.97;9.57;;;27.80;49.00;;;;;;4991420;28;20474;-72
2021/07/21 12:49:40;;;;;;;20.30;11.30;;;27.80;49.10;;;;;;4992996;28;20864;-71
2021/07/21 12:52:09;;;;;;;16.10;10.23;;;27.50;49.70;;;;;;4985844;28;20466;-73
2021/07/21 12:54:36;;;;;;;13.97;10.10;;;27.30;50.60;;;;;;4989498;28;20448;-72